sensor_id;sensor_type;location;lat;lon;timestamp;pressure;altitude;pressure_sealevel;temperature;humidity
52319;BME280;38258;51.148;14.068;2023-12-22T00:01:08;95708.38;;;2.76;100.00
52319;BME280;38258;51.148;14.068;2023-12-22T00:03:37;95713.72;;;2.72;100.00
52319;BME280;38258;51.148;14.068;2023-12-22T00:06:03;95711.88;;;2.75;100.00
52319;BME280;38258;51.148;14.068;2023-12-22T00:08:31;95722.44;;;2.69;100.00
52319;BME280;38258;51.148;14.068;2023-12-22T00:10:58;95716.31;;;2.72;100.00
52319;BME280;38258;51.148;14.068;2023-12-22T00:13:25;95719.88;;;2.69;100.00
52319;BME280;38258;51.148;14.068;2023-12-22T00:15:51;95709.78;;;2.63;100.00
52319;BME280;38258;51.148;14.068;2023-12-22T00:18:18;95716.59;;;2.64;100.00
52319;BME280;38258;51.148;14.068;2023-12-22T00:20:45;95712.31;;;2.64;100.00
52319;BME280;38258;51.148;14.068;2023-12-22T00:23:11;95713.94;;;2.67;100.00
52319;BME280;38258;51.148;14.068;2023-12-22T00:25:39;95712.59;;;2.57;100.00
52319;BME280;38258;51.148;14.068;2023-12-22T00:28:06;95717.41;;;2.66;100.00
52319;BME280;38258;51.148;14.068;2023-12-22T00:30:32;95709.72;;;2.64;100.00
52319;BME280;38258;51.148;14.068;2023-12-22T00:32:59;95713.81;;;2.70;100.00
52319;BME280;38258;51.148;14.068;2023-12-22T00:35:26;95712.13;;;2.69;100.00
52319;BME280;38258;51.148;14.068;2023-12-22T00:37:52;95717.34;;;2.67;100.00
52319;BME280;38258;51.148;14.068;2023-12-22T00:40:19;95703.47;;;2.70;100.00
52319;BME280;38258;51.148;14.068;2023-12-22T00:42:47;95692.38;;;2.68;100.00
52319;BME280;38258;51.148;14.068;2023-12-22T00:45:13;95701.53;;;2.75;100.00
52319;BME280;38258;51.148;14.068;2023-12-22T00:47:40;95715.34;;;2.74;100.00
52319;BME280;38258;51.148;14.068;2023-12-22T00:50:07;95714.63;;;2.71;100.00
52319;BME280;38258;51.148;14.068;2023-12-22T00:52:34;95705.94;;;2.73;100.00
52319;BME280;38258;51.148;14.068;2023-12-22T00:55:00;95711.03;;;2.75;100.00
52319;BME280;38258;51.148;14.068;2023-12-22T00:57:27;95724.91;;;2.72;100.00
52319;BME280;38258;51.148;14.068;2023-12-22T00:59:56;95724.91;;;2.72;100.00
52319;BME280;38258;51.148;14.068;2023-12-22T01:02:23;95730.09;;;2.71;100.00
52319;BME280;38258;51.148;14.068;2023-12-22T01:04:50;95731.75;;;2.73;100.00
52319;BME280;38258;51.148;14.068;2023-12-22T01:07:16;95729.41;;;2.67;100.00
52319;BME280;38258;51.148;14.068;2023-12-22T01:09:44;95718.84;;;2.73;100.00
52319;BME280;38258;51.148;14.068;2023-12-22T01:12:10;95742.91;;;2.74;100.00
52319;BME280;38258;51.148;14.068;2023-12-22T01:14:37;95724.94;;;2.71;100.00
52319;BME280;38258;51.148;14.068;2023-12-22T01:17:05;95744.00;;;2.68;100.00
52319;BME280;38258;51.148;14.068;2023-12-22T01:19:32;95744.59;;;2.75;100.00
52319;BME280;38258;51.148;14.068;2023-12-22T01:21:59;95751.78;;;2.66;100.00
52319;BME280;38258;51.148;14.068;2023-12-22T01:24:26;95755.00;;;2.72;100.00
52319;BME280;38258;51.148;14.068;2023-12-22T01:26:52;95768.78;;;2.72;100.00
52319;BME280;38258;51.148;14.068;2023-12-22T01:29:19;95763.63;;;2.72;100.00
52319;BME280;38258;51.148;14.068;2023-12-22T01:31:45;95757.81;;;2.67;100.00
52319;BME280;38258;51.148;14.068;2023-12-22T01:34:13;95769.72;;;2.69;100.00
52319;BME280;38258;51.148;14.068;2023-12-22T01:36:40;95754.66;;;2.59;100.00
52319;BME280;38258;51.148;14.068;2023-12-22T01:39:07;95768.91;;;2.47;100.00
52319;BME280;38258;51.148;14.068;2023-12-22T01:41:34;95782.50;;;2.50;100.00
52319;BME280;38258;51.148;14.068;2023-12-22T01:44:01;95801.53;;;2.48;100.00
52319;BME280;38258;51.148;14.068;2023-12-22T01:46:28;95791.38;;;2.43;100.00
52319;BME280;38258;51.148;14.068;2023-12-22T01:48:55;95791.34;;;2.45;100.00
52319;BME280;38258;51.148;14.068;2023-12-22T01:51:23;95794.88;;;2.42;100.00
52319;BME280;38258;51.148;14.068;2023-12-22T01:53:50;95795.94;;;2.36;100.00
52319;BME280;38258;51.148;14.068;2023-12-22T01:56:18;95797.25;;;2.24;100.00
52319;BME280;38258;51.148;14.068;2023-12-22T01:58:45;95807.53;;;2.01;100.00
52319;BME280;38258;51.148;14.068;2023-12-22T02:01:19;95802.50;;;1.97;100.00
52319;BME280;38258;51.148;14.068;2023-12-22T02:03:48;95804.19;;;1.98;100.00
52319;BME280;38258;51.148;14.068;2023-12-22T02:06:17;95804.34;;;1.94;100.00
52319;BME280;38258;51.148;14.068;2023-12-22T02:08:46;95815.16;;;2.04;100.00
52319;BME280;38258;51.148;14.068;2023-12-22T02:11:13;95821.34;;;2.00;100.00
52319;BME280;38258;51.148;14.068;2023-12-22T02:13:40;95827.44;;;1.97;100.00
52319;BME280;38258;51.148;14.068;2023-12-22T02:16:22;95801.66;;;1.97;100.00
52319;BME280;38258;51.148;14.068;2023-12-22T02:18:55;95820.81;;;1.90;100.00
52319;BME280;38258;51.148;14.068;2023-12-22T02:21:22;95815.66;;;1.90;100.00
52319;BME280;38258;51.148;14.068;2023-12-22T02:23:50;95811.34;;;1.90;100.00
52319;BME280;38258;51.148;14.068;2023-12-22T02:26:21;95811.44;;;1.87;100.00
52319;BME280;38258;51.148;14.068;2023-12-22T02:28:50;95813.91;;;1.90;100.00
52319;BME280;38258;51.148;14.068;2023-12-22T02:31:22;95816.50;;;1.90;100.00
52319;BME280;38258;51.148;14.068;2023-12-22T02:33:55;95811.50;;;1.86;100.00
52319;BME280;38258;51.148;14.068;2023-12-22T02:36:24;95830.38;;;1.86;100.00
52319;BME280;38258;51.148;14.068;2023-12-22T02:38:54;95830.38;;;1.86;100.00
52319;BME280;38258;51.148;14.068;2023-12-22T02:41:22;95828.66;;;1.87;100.00
52319;BME280;38258;51.148;14.068;2023-12-22T02:43:49;95834.94;;;1.78;100.00
52319;BME280;38258;51.148;14.068;2023-12-22T02:46:16;95835.53;;;1.86;100.00
52319;BME280;38258;51.148;14.068;2023-12-22T02:48:43;95827.66;;;1.91;100.00
52319;BME280;38258;51.148;14.068;2023-12-22T02:51:09;95823.25;;;1.94;100.00
52319;BME280;38258;51.148;14.068;2023-12-22T02:53:36;95832.72;;;1.92;100.00
52319;BME280;38258;51.148;14.068;2023-12-22T02:56:05;95841.84;;;2.03;100.00
52319;BME280;38258;51.148;14.068;2023-12-22T02:58:32;95844.72;;;1.93;100.00
52319;BME280;38258;51.148;14.068;2023-12-22T03:00:58;95834.22;;;2.00;100.00
52319;BME280;38258;51.148;14.068;2023-12-22T03:03:25;95834.41;;;1.93;100.00
52319;BME280;38258;51.148;14.068;2023-12-22T03:05:51;95846.38;;;1.96;100.00
52319;BME280;38258;51.148;14.068;2023-12-22T03:08:18;95837.69;;;1.98;100.00
52319;BME280;38258;51.148;14.068;2023-12-22T03:10:45;95838.59;;;1.97;100.00
52319;BME280;38258;51.148;14.068;2023-12-22T03:13:12;95835.66;;;1.83;100.00
52319;BME280;38258;51.148;14.068;2023-12-22T03:15:39;95838.66;;;1.71;100.00
52319;BME280;38258;51.148;14.068;2023-12-22T03:18:06;95831.69;;;1.73;100.00
52319;BME280;38258;51.148;14.068;2023-12-22T03:20:32;95831.81;;;1.69;100.00
52319;BME280;38258;51.148;14.068;2023-12-22T03:22:59;95822.34;;;1.70;100.00
52319;BME280;38258;51.148;14.068;2023-12-22T03:25:26;95824.25;;;1.65;100.00
52319;BME280;38258;51.148;14.068;2023-12-22T03:27:52;95821.50;;;1.69;100.00
52319;BME280;38258;51.148;14.068;2023-12-22T03:30:20;95812.13;;;1.67;100.00
52319;BME280;38258;51.148;14.068;2023-12-22T03:32:47;95807.22;;;1.61;100.00
52319;BME280;38258;51.148;14.068;2023-12-22T03:35:13;95807.28;;;1.58;100.00
52319;BME280;38258;51.148;14.068;2023-12-22T03:37:40;95809.66;;;1.64;100.00
52319;BME280;38258;51.148;14.068;2023-12-22T03:40:08;95803.50;;;1.68;100.00
52319;BME280;38258;51.148;14.068;2023-12-22T03:42:36;95788.06;;;1.68;100.00
52319;BME280;38258;51.148;14.068;2023-12-22T03:45:03;95797.88;;;1.57;100.00
52319;BME280;38258;51.148;14.068;2023-12-22T03:47:31;95796.56;;;1.45;100.00
52319;BME280;38258;51.148;14.068;2023-12-22T03:49:57;95805.81;;;1.50;100.00
52319;BME280;38258;51.148;14.068;2023-12-22T03:52:24;95799.44;;;1.35;100.00
52319;BME280;38258;51.148;14.068;2023-12-22T03:54:51;95804.16;;;1.49;100.00
52319;BME280;38258;51.148;14.068;2023-12-22T03:57:17;95818.75;;;1.49;100.00
52319;BME280;38258;51.148;14.068;2023-12-22T03:59:44;95806.69;;;1.51;100.00
52319;BME280;38258;51.148;14.068;2023-12-22T04:02:10;95820.25;;;1.56;100.00
52319;BME280;38258;51.148;14.068;2023-12-22T04:04:39;95818.81;;;1.47;100.00
52319;BME280;38258;51.148;14.068;2023-12-22T04:07:06;95816.38;;;1.43;100.00
52319;BME280;38258;51.148;14.068;2023-12-22T04:09:32;95816.59;;;1.36;100.00
52319;BME280;38258;51.148;14.068;2023-12-22T04:11:59;95800.09;;;1.42;100.00
52319;BME280;38258;51.148;14.068;2023-12-22T04:14:25;95803.28;;;1.49;100.00
52319;BME280;38258;51.148;14.068;2023-12-22T04:16:57;95804.56;;;1.62;100.00
52319;BME280;38258;51.148;14.068;2023-12-22T04:19:31;95810.22;;;1.72;100.00
52319;BME280;38258;51.148;14.068;2023-12-22T04:22:03;95806.78;;;1.73;100.00
52319;BME280;38258;51.148;14.068;2023-12-22T04:24:29;95793.34;;;1.89;100.00
52319;BME280;38258;51.148;14.068;2023-12-22T04:26:56;95803.94;;;1.81;100.00
52319;BME280;38258;51.148;14.068;2023-12-22T04:29:23;95807.94;;;1.90;100.00
52319;BME280;38258;51.148;14.068;2023-12-22T04:31:50;95789.00;;;1.91;100.00
52319;BME280;38258;51.148;14.068;2023-12-22T04:34:16;95793.59;;;2.06;100.00
52319;BME280;38258;51.148;14.068;2023-12-22T04:36:43;95803.13;;;2.04;100.00
52319;BME280;38258;51.148;14.068;2023-12-22T04:39:11;95805.84;;;2.00;100.00
52319;BME280;38258;51.148;14.068;2023-12-22T04:41:37;95805.06;;;1.97;100.00
52319;BME280;38258;51.148;14.068;2023-12-22T04:44:04;95814.66;;;1.94;100.00
52319;BME280;38258;51.148;14.068;2023-12-22T04:46:31;95816.19;;;2.00;100.00
52319;BME280;38258;51.148;14.068;2023-12-22T04:48:57;95812.69;;;2.01;100.00
52319;BME280;38258;51.148;14.068;2023-12-22T04:51:24;95816.00;;;2.04;100.00
52319;BME280;38258;51.148;14.068;2023-12-22T04:53:51;95818.59;;;2.04;100.00
52319;BME280;38258;51.148;14.068;2023-12-22T04:56:19;95798.13;;;2.00;100.00
52319;BME280;38258;51.148;14.068;2023-12-22T04:58:46;95801.38;;;2.05;100.00
52319;BME280;38258;51.148;14.068;2023-12-22T05:01:12;95796.16;;;2.06;100.00
52319;BME280;38258;51.148;14.068;2023-12-22T05:03:39;95789.25;;;2.07;100.00
52319;BME280;38258;51.148;14.068;2023-12-22T05:06:05;95811.69;;;2.05;100.00
52319;BME280;38258;51.148;14.068;2023-12-22T05:08:32;95787.69;;;2.03;100.00
52319;BME280;38258;51.148;14.068;2023-12-22T05:10:59;95795.72;;;1.95;100.00
52319;BME280;38258;51.148;14.068;2023-12-22T05:13:27;95791.41;;;1.95;100.00
52319;BME280;38258;51.148;14.068;2023-12-22T05:15:54;95784.78;;;1.88;100.00
52319;BME280;38258;51.148;14.068;2023-12-22T05:18:21;95793.44;;;1.86;100.00
52319;BME280;38258;51.148;14.068;2023-12-22T05:20:47;95797.94;;;1.80;100.00
52319;BME280;38258;51.148;14.068;2023-12-22T05:23:15;95809.28;;;1.75;100.00
52319;BME280;38258;51.148;14.068;2023-12-22T05:25:42;95789.41;;;1.78;100.00
52319;BME280;38258;51.148;14.068;2023-12-22T05:28:08;95775.63;;;1.79;100.00
52319;BME280;38258;51.148;14.068;2023-12-22T05:30:36;95785.81;;;1.82;100.00
52319;BME280;38258;51.148;14.068;2023-12-22T05:33:03;95786.16;;;1.73;100.00
52319;BME280;38258;51.148;14.068;2023-12-22T05:35:30;95780.91;;;1.76;100.00
52319;BME280;38258;51.148;14.068;2023-12-22T05:37:56;95786.09;;;1.75;100.00
52319;BME280;38258;51.148;14.068;2023-12-22T05:40:23;95798.94;;;1.76;100.00
52319;BME280;38258;51.148;14.068;2023-12-22T05:42:50;95786.22;;;1.72;100.00
52319;BME280;38258;51.148;14.068;2023-12-22T05:45:16;95788.84;;;1.70;100.00
52319;BME280;38258;51.148;14.068;2023-12-22T05:47:45;95790.63;;;1.68;100.00
52319;BME280;38258;51.148;14.068;2023-12-22T05:50:12;95781.44;;;1.61;100.00
52319;BME280;38258;51.148;14.068;2023-12-22T05:52:38;95789.84;;;1.66;100.00
52319;BME280;38258;51.148;14.068;2023-12-22T05:55:05;95796.03;;;1.60;100.00
52319;BME280;38258;51.148;14.068;2023-12-22T05:57:33;95804.56;;;1.62;100.00
52319;BME280;38258;51.148;14.068;2023-12-22T06:00:00;95810.72;;;1.58;100.00
52319;BME280;38258;51.148;14.068;2023-12-22T06:02:30;95807.25;;;1.59;100.00
52319;BME280;38258;51.148;14.068;2023-12-22T06:04:58;95835.59;;;1.59;100.00
52319;BME280;38258;51.148;14.068;2023-12-22T06:07:26;95821.88;;;1.59;100.00
52319;BME280;38258;51.148;14.068;2023-12-22T06:09:53;95833.13;;;1.56;100.00
52319;BME280;38258;51.148;14.068;2023-12-22T06:12:20;95842.50;;;1.59;100.00
52319;BME280;38258;51.148;14.068;2023-12-22T06:14:46;95825.50;;;1.53;100.00
52319;BME280;38258;51.148;14.068;2023-12-22T06:17:13;95839.31;;;1.50;100.00
52319;BME280;38258;51.148;14.068;2023-12-22T06:19:39;95829.88;;;1.51;100.00
52319;BME280;38258;51.148;14.068;2023-12-22T06:22:07;95824.91;;;1.45;100.00
52319;BME280;38258;51.148;14.068;2023-12-22T06:24:34;95835.97;;;1.48;100.00
52319;BME280;38258;51.148;14.068;2023-12-22T06:27:01;95839.44;;;1.47;100.00
52319;BME280;38258;51.148;14.068;2023-12-22T06:29:28;95828.22;;;1.48;100.00
52319;BME280;38258;51.148;14.068;2023-12-22T06:31:56;95819.06;;;1.39;100.00
52319;BME280;38258;51.148;14.068;2023-12-22T06:34:23;95844.69;;;1.44;100.00
52319;BME280;38258;51.148;14.068;2023-12-22T06:36:51;95848.13;;;1.43;100.00
52319;BME280;38258;51.148;14.068;2023-12-22T06:39:19;95841.22;;;1.45;100.00
52319;BME280;38258;51.148;14.068;2023-12-22T06:41:46;95824.78;;;1.48;100.00
52319;BME280;38258;51.148;14.068;2023-12-22T06:44:13;95830.81;;;1.48;100.00
52319;BME280;38258;51.148;14.068;2023-12-22T06:46:40;95833.28;;;1.51;100.00
52319;BME280;38258;51.148;14.068;2023-12-22T06:49:07;95837.59;;;1.51;100.00
52319;BME280;38258;51.148;14.068;2023-12-22T06:51:34;95825.50;;;1.53;100.00
52319;BME280;38258;51.148;14.068;2023-12-22T06:54:01;95833.88;;;1.60;100.00
52319;BME280;38258;51.148;14.068;2023-12-22T06:56:32;95844.00;;;1.64;100.00
52319;BME280;38258;51.148;14.068;2023-12-22T06:59:00;95851.38;;;1.75;100.00
52319;BME280;38258;51.148;14.068;2023-12-22T07:01:28;95845.50;;;1.72;100.00
52319;BME280;38258;51.148;14.068;2023-12-22T07:03:55;95860.28;;;1.66;100.00
52319;BME280;38258;51.148;14.068;2023-12-22T07:06:22;95846.41;;;1.44;100.00
52319;BME280;38258;51.148;14.068;2023-12-22T07:08:57;95847.56;;;1.35;100.00
52319;BME280;38258;51.148;14.068;2023-12-22T07:11:23;95840.88;;;1.29;100.00
52319;BME280;38258;51.148;14.068;2023-12-22T07:13:51;95840.91;;;1.27;100.00
52319;BME280;38258;51.148;14.068;2023-12-22T07:16:18;95833.28;;;1.24;100.00
52319;BME280;38258;51.148;14.068;2023-12-22T07:18:44;95846.69;;;1.34;100.00
52319;BME280;38258;51.148;14.068;2023-12-22T07:21:16;95835.47;;;1.37;100.00
52319;BME280;38258;51.148;14.068;2023-12-22T07:23:43;95846.56;;;1.39;100.00
52319;BME280;38258;51.148;14.068;2023-12-22T07:26:10;95871.16;;;1.48;100.00
52319;BME280;38258;51.148;14.068;2023-12-22T07:28:38;95871.28;;;1.45;100.00
52319;BME280;38258;51.148;14.068;2023-12-22T07:31:06;95867.66;;;1.50;100.00
52319;BME280;38258;51.148;14.068;2023-12-22T07:33:33;95874.50;;;1.51;100.00
52319;BME280;38258;51.148;14.068;2023-12-22T07:36:00;95869.34;;;1.51;100.00
52319;BME280;38258;51.148;14.068;2023-12-22T07:38:26;95870.88;;;1.57;100.00
52319;BME280;38258;51.148;14.068;2023-12-22T07:40:53;95880.25;;;1.60;100.00
52319;BME280;38258;51.148;14.068;2023-12-22T07:43:20;95882.75;;;1.61;100.00
52319;BME280;38258;51.148;14.068;2023-12-22T07:45:47;95884.38;;;1.65;100.00
52319;BME280;38258;51.148;14.068;2023-12-22T07:48:17;95887.81;;;1.64;100.00
52319;BME280;38258;51.148;14.068;2023-12-22T07:50:44;95891.19;;;1.66;100.00
52319;BME280;38258;51.148;14.068;2023-12-22T07:53:11;95892.94;;;1.64;100.00
52319;BME280;38258;51.148;14.068;2023-12-22T07:55:37;95906.44;;;1.73;100.00
52319;BME280;38258;51.148;14.068;2023-12-22T07:58:04;95906.47;;;1.71;100.00
52319;BME280;38258;51.148;14.068;2023-12-22T08:00:31;95922.91;;;1.68;100.00
52319;BME280;38258;51.148;14.068;2023-12-22T08:02:57;95910.19;;;1.62;100.00
52319;BME280;38258;51.148;14.068;2023-12-22T08:05:25;95934.91;;;1.69;100.00
52319;BME280;38258;51.148;14.068;2023-12-22T08:07:52;95935.66;;;1.73;100.00
52319;BME280;38258;51.148;14.068;2023-12-22T08:10:19;95937.81;;;1.59;100.00
52319;BME280;38258;51.148;14.068;2023-12-22T08:12:45;95950.53;;;1.63;100.00
52319;BME280;38258;51.148;14.068;2023-12-22T08:15:12;95943.13;;;1.54;100.00
52319;BME280;38258;51.148;14.068;2023-12-22T08:17:45;95963.84;;;1.51;100.00
52319;BME280;38258;51.148;14.068;2023-12-22T08:20:16;95962.38;;;1.42;100.00
52319;BME280;38258;51.148;14.068;2023-12-22T08:22:46;95969.50;;;1.34;100.00
52319;BME280;38258;51.148;14.068;2023-12-22T08:25:12;95962.38;;;1.13;100.00
52319;BME280;38258;51.148;14.068;2023-12-22T08:27:39;95977.19;;;1.05;100.00
52319;BME280;38258;51.148;14.068;2023-12-22T08:30:07;95981.91;;;0.91;100.00
52319;BME280;38258;51.148;14.068;2023-12-22T08:32:34;95982.72;;;0.61;100.00
52319;BME280;38258;51.148;14.068;2023-12-22T08:35:01;95979.41;;;0.58;100.00
52319;BME280;38258;51.148;14.068;2023-12-22T08:37:28;95985.09;;;0.69;100.00
52319;BME280;38258;51.148;14.068;2023-12-22T08:39:56;95992.75;;;0.39;100.00
52319;BME280;38258;51.148;14.068;2023-12-22T08:42:23;95981.72;;;0.34;100.00
52319;BME280;38258;51.148;14.068;2023-12-22T08:44:50;95989.66;;;0.26;100.00
52319;BME280;38258;51.148;14.068;2023-12-22T08:47:16;95986.59;;;0.11;100.00
52319;BME280;38258;51.148;14.068;2023-12-22T08:49:43;95994.78;;;-0.07;100.00
52319;BME280;38258;51.148;14.068;2023-12-22T08:52:10;96025.00;;;-0.19;100.00
52319;BME280;38258;51.148;14.068;2023-12-22T08:54:37;96024.53;;;-0.35;100.00
52319;BME280;38258;51.148;14.068;2023-12-22T08:57:04;95997.91;;;-0.68;100.00
52319;BME280;38258;51.148;14.068;2023-12-22T08:59:31;96007.31;;;-0.69;100.00
52319;BME280;38258;51.148;14.068;2023-12-22T09:01:58;96008.03;;;-0.62;100.00
52319;BME280;38258;51.148;14.068;2023-12-22T09:04:25;96037.78;;;-0.53;100.00
52319;BME280;38258;51.148;14.068;2023-12-22T09:06:51;96040.13;;;-0.43;100.00
52319;BME280;38258;51.148;14.068;2023-12-22T09:09:18;96049.44;;;-0.38;100.00
52319;BME280;38258;51.148;14.068;2023-12-22T09:11:47;96036.56;;;-0.37;100.00
52319;BME280;38258;51.148;14.068;2023-12-22T09:14:15;96042.19;;;-0.21;100.00
52319;BME280;38258;51.148;14.068;2023-12-22T09:16:41;96044.41;;;-0.05;100.00
52319;BME280;38258;51.148;14.068;2023-12-22T09:19:09;96068.94;;;0.07;100.00
52319;BME280;38258;51.148;14.068;2023-12-22T09:21:36;96050.47;;;0.27;100.00
52319;BME280;38258;51.148;14.068;2023-12-22T09:24:03;96054.88;;;0.23;100.00
52319;BME280;38258;51.148;14.068;2023-12-22T09:26:30;96048.09;;;0.19;100.00
52319;BME280;38258;51.148;14.068;2023-12-22T09:28:57;96047.09;;;0.25;100.00
52319;BME280;38258;51.148;14.068;2023-12-22T09:31:25;96060.16;;;0.17;100.00
52319;BME280;38258;51.148;14.068;2023-12-22T09:33:52;96055.88;;;0.18;100.00
52319;BME280;38258;51.148;14.068;2023-12-22T09:36:18;96029.88;;;0.28;100.00
52319;BME280;38258;51.148;14.068;2023-12-22T09:38:45;96039.56;;;0.52;100.00
52319;BME280;38258;51.148;14.068;2023-12-22T09:41:12;96035.22;;;0.87;100.00
52319;BME280;38258;51.148;14.068;2023-12-22T09:43:39;96047.66;;;0.71;100.00
52319;BME280;38258;51.148;14.068;2023-12-22T09:46:07;96036.91;;;0.55;100.00
52319;BME280;38258;51.148;14.068;2023-12-22T09:48:36;96059.06;;;0.61;100.00
52319;BME280;38258;51.148;14.068;2023-12-22T09:51:05;96060.81;;;0.60;100.00
52319;BME280;38258;51.148;14.068;2023-12-22T09:53:33;96073.88;;;0.51;100.00
52319;BME280;38258;51.148;14.068;2023-12-22T09:56:02;96083.34;;;0.50;100.00
52319;BME280;38258;51.148;14.068;2023-12-22T09:58:29;96086.94;;;0.43;100.00
52319;BME280;38258;51.148;14.068;2023-12-22T10:00:56;96084.41;;;0.41;100.00
52319;BME280;38258;51.148;14.068;2023-12-22T10:03:24;96077.50;;;0.09;100.00
52319;BME280;38258;51.148;14.068;2023-12-22T10:05:53;96071.50;;;0.08;100.00
52319;BME280;38258;51.148;14.068;2023-12-22T10:08:20;96057.63;;;0.16;100.00
52319;BME280;38258;51.148;14.068;2023-12-22T10:10:47;96067.13;;;0.12;100.00
52319;BME280;38258;51.148;14.068;2023-12-22T10:13:14;96063.28;;;0.30;100.00
52319;BME280;38258;51.148;14.068;2023-12-22T10:15:43;96064.56;;;0.47;100.00
52319;BME280;38258;51.148;14.068;2023-12-22T10:18:12;96082.97;;;0.31;100.00
52319;BME280;38258;51.148;14.068;2023-12-22T10:20:39;96078.66;;;0.32;100.00
52319;BME280;38258;51.148;14.068;2023-12-22T10:23:07;96084.59;;;0.34;100.00
52319;BME280;38258;51.148;14.068;2023-12-22T10:25:34;96094.13;;;0.30;100.00
52319;BME280;38258;51.148;14.068;2023-12-22T10:28:01;96091.22;;;0.42;100.00
52319;BME280;38258;51.148;14.068;2023-12-22T10:30:28;96097.44;;;0.35;100.00
52319;BME280;38258;51.148;14.068;2023-12-22T10:32:54;96091.41;;;0.35;100.00
52319;BME280;38258;51.148;14.068;2023-12-22T10:35:21;96094.06;;;0.32;100.00
52319;BME280;38258;51.148;14.068;2023-12-22T10:37:49;96087.81;;;0.44;100.00
52319;BME280;38258;51.148;14.068;2023-12-22T10:40:19;96084.69;;;0.64;100.00
52319;BME280;38258;51.148;14.068;2023-12-22T10:42:46;96092.97;;;1.08;100.00
52319;BME280;38258;51.148;14.068;2023-12-22T10:45:12;96086.66;;;1.79;100.00
52319;BME280;38258;51.148;14.068;2023-12-22T10:47:40;96086.75;;;1.76;100.00
52319;BME280;38258;51.148;14.068;2023-12-22T10:50:08;96080.09;;;1.97;100.00
52319;BME280;38258;51.148;14.068;2023-12-22T10:52:37;96079.25;;;1.96;100.00
52319;BME280;38258;51.148;14.068;2023-12-22T10:55:05;96083.81;;;1.60;100.00
52319;BME280;38258;51.148;14.068;2023-12-22T10:57:33;96062.78;;;2.01;100.00
52319;BME280;38258;51.148;14.068;2023-12-22T11:00:03;96071.84;;;1.86;100.00
52319;BME280;38258;51.148;14.068;2023-12-22T11:02:34;96077.72;;;1.91;100.00
52319;BME280;38258;51.148;14.068;2023-12-22T11:05:03;96077.72;;;1.91;100.00
52319;BME280;38258;51.148;14.068;2023-12-22T11:07:33;96065.06;;;1.83;100.00
52319;BME280;38258;51.148;14.068;2023-12-22T11:10:02;96070.16;;;1.56;100.00
52319;BME280;38258;51.148;14.068;2023-12-22T11:12:32;96059.00;;;1.55;100.00
52319;BME280;38258;51.148;14.068;2023-12-22T11:15:00;96054.22;;;1.43;100.00
52319;BME280;38258;51.148;14.068;2023-12-22T11:17:28;96060.97;;;1.47;100.00
52319;BME280;38258;51.148;14.068;2023-12-22T11:19:57;96060.88;;;1.50;100.00
52319;BME280;38258;51.148;14.068;2023-12-22T11:22:25;96049.91;;;1.72;100.00
52319;BME280;38258;51.148;14.068;2023-12-22T11:24:53;96058.28;;;1.52;100.00
52319;BME280;38258;51.148;14.068;2023-12-22T11:27:20;96070.53;;;1.44;100.00
52319;BME280;38258;51.148;14.068;2023-12-22T11:29:49;96046.56;;;1.40;100.00
52319;BME280;38258;51.148;14.068;2023-12-22T11:32:17;96053.19;;;1.19;100.00
52319;BME280;38258;51.148;14.068;2023-12-22T11:34:45;96049.88;;;1.15;100.00
52319;BME280;38258;51.148;14.068;2023-12-22T11:37:12;96043.91;;;1.13;100.00
52319;BME280;38258;51.148;14.068;2023-12-22T11:39:39;96047.88;;;0.95;100.00
52319;BME280;38258;51.148;14.068;2023-12-22T11:42:08;96045.66;;;0.81;100.00
52319;BME280;38258;51.148;14.068;2023-12-22T11:44:36;96055.97;;;0.48;100.00
52319;BME280;38258;51.148;14.068;2023-12-22T11:47:07;96052.63;;;0.44;100.00
52319;BME280;38258;51.148;14.068;2023-12-22T11:49:35;96069.31;;;0.27;100.00
52319;BME280;38258;51.148;14.068;2023-12-22T11:52:13;96083.38;;;0.12;100.00
52319;BME280;38258;51.148;14.068;2023-12-22T11:54:47;96117.84;;;0.05;100.00
52319;BME280;38258;51.148;14.068;2023-12-22T11:57:40;96116.41;;;-0.07;100.00
52319;BME280;38258;51.148;14.068;2023-12-22T12:00:08;96100.91;;;-0.04;100.00
52319;BME280;38258;51.148;14.068;2023-12-22T12:02:41;96086.81;;;0.13;100.00
52319;BME280;38258;51.148;14.068;2023-12-22T12:05:08;96082.63;;;0.09;100.00
52319;BME280;38258;51.148;14.068;2023-12-22T12:07:43;96073.69;;;0.24;100.00
52319;BME280;38258;51.148;14.068;2023-12-22T12:10:11;96070.03;;;0.34;100.00
52319;BME280;38258;51.148;14.068;2023-12-22T12:12:38;96071.97;;;0.24;100.00
52319;BME280;38258;51.148;14.068;2023-12-22T12:15:12;96063.97;;;0.37;100.00
52319;BME280;38258;51.148;14.068;2023-12-22T12:17:42;96058.94;;;0.32;100.00
52319;BME280;38258;51.148;14.068;2023-12-22T12:20:10;96066.06;;;0.21;100.00
52319;BME280;38258;51.148;14.068;2023-12-22T12:22:38;96064.22;;;0.26;100.00
52319;BME280;38258;51.148;14.068;2023-12-22T12:25:09;96062.44;;;0.28;100.00
52319;BME280;38258;51.148;14.068;2023-12-22T12:27:37;96064.16;;;0.29;100.00
52319;BME280;38258;51.148;14.068;2023-12-22T12:30:11;96046.72;;;0.40;100.00
52319;BME280;38258;51.148;14.068;2023-12-22T12:32:38;96051.16;;;0.34;100.00
52319;BME280;38258;51.148;14.068;2023-12-22T12:35:08;96063.00;;;0.41;100.00
52319;BME280;38258;51.148;14.068;2023-12-22T12:37:35;96062.91;;;0.44;100.00
52319;BME280;38258;51.148;14.068;2023-12-22T12:40:02;96065.47;;;0.44;100.00
52319;BME280;38258;51.148;14.068;2023-12-22T12:42:32;96074.06;;;0.45;100.00
52319;BME280;38258;51.148;14.068;2023-12-22T12:45:03;96060.00;;;0.58;100.00
52319;BME280;38258;51.148;14.068;2023-12-22T12:47:30;96041.94;;;0.60;100.00
52319;BME280;38258;51.148;14.068;2023-12-22T12:49:57;96040.94;;;0.65;100.00
52319;BME280;38258;51.148;14.068;2023-12-22T12:52:26;96033.31;;;0.61;100.00